sensor_id;sensor_type;location;lat;lon;timestamp;P1;durP1;ratioP1;P2;durP2;ratioP2
75912;SDS011;64592;52.168;21.040;2023-04-25T00:01:55;13.75;;;9.90;;
75912;SDS011;64592;52.168;21.040;2023-04-25T00:06:59;14.38;;;10.05;;
75912;SDS011;64592;52.168;21.040;2023-04-25T00:12:02;14.35;;;10.60;;
75912;SDS011;64592;52.168;21.040;2023-04-25T00:17:05;15.77;;;10.70;;
75912;SDS011;64592;52.168;21.040;2023-04-25T00:22:08;13.82;;;10.07;;
75912;SDS011;64592;52.168;21.040;2023-04-25T00:27:09;16.50;;;9.80;;
75912;SDS011;64592;52.168;21.040;2023-04-25T00:32:11;15.07;;;10.27;;
75912;SDS011;64592;52.168;21.040;2023-04-25T00:37:14;19.33;;;10.43;;
75912;SDS011;64592;52.168;21.040;2023-04-25T00:42:16;16.75;;;10.32;;
75912;SDS011;64592;52.168;21.040;2023-04-25T00:47:17;16.38;;;9.80;;
75912;SDS011;64592;52.168;21.040;2023-04-25T00:52:21;14.68;;;10.93;;
75912;SDS011;64592;52.168;21.040;2023-04-25T00:57:23;13.77;;;10.82;;
75912;SDS011;64592;52.168;21.040;2023-04-25T01:02:24;13.68;;;9.93;;
75912;SDS011;64592;52.168;21.040;2023-04-25T01:07:29;15.75;;;10.38;;
75912;SDS011;64592;52.168;21.040;2023-04-25T01:12:31;13.70;;;9.98;;
75912;SDS011;64592;52.168;21.040;2023-04-25T01:17:33;15.00;;;10.93;;
75912;SDS011;64592;52.168;21.040;2023-04-25T01:22:38;14.90;;;9.80;;
75912;SDS011;64592;52.168;21.040;2023-04-25T01:27:39;16.48;;;11.32;;
75912;SDS011;64592;52.168;21.040;2023-04-25T01:32:42;15.25;;;11.15;;
75912;SDS011;64592;52.168;21.040;2023-04-25T01:37:45;15.32;;;10.38;;
75912;SDS011;64592;52.168;21.040;2023-04-25T01:42:47;14.30;;;9.88;;
75912;SDS011;64592;52.168;21.040;2023-04-25T01:47:49;13.73;;;10.00;;
75912;SDS011;64592;52.168;21.040;2023-04-25T01:52:52;13.60;;;8.82;;
75912;SDS011;64592;52.168;21.040;2023-04-25T01:57:55;14.70;;;9.63;;
75912;SDS011;64592;52.168;21.040;2023-04-25T02:02:58;13.63;;;9.07;;
75912;SDS011;64592;52.168;21.040;2023-04-25T02:08:01;13.98;;;9.75;;
75912;SDS011;64592;52.168;21.040;2023-04-25T02:13:03;14.63;;;8.40;;
75912;SDS011;64592;52.168;21.040;2023-04-25T02:18:05;15.75;;;9.77;;
75912;SDS011;64592;52.168;21.040;2023-04-25T02:23:08;13.98;;;9.05;;
75912;SDS011;64592;52.168;21.040;2023-04-25T02:28:10;16.90;;;9.55;;
75912;SDS011;64592;52.168;21.040;2023-04-25T02:33:11;13.65;;;8.60;;
75912;SDS011;64592;52.168;21.040;2023-04-25T02:38:14;14.25;;;8.45;;
75912;SDS011;64592;52.168;21.040;2023-04-25T02:43:16;11.57;;;8.40;;
75912;SDS011;64592;52.168;21.040;2023-04-25T02:48:18;12.68;;;7.60;;
75912;SDS011;64592;52.168;21.040;2023-04-25T02:53:21;12.77;;;7.97;;
75912;SDS011;64592;52.168;21.040;2023-04-25T02:58:22;10.90;;;7.82;;
75912;SDS011;64592;52.168;21.040;2023-04-25T03:03:24;13.70;;;8.88;;
75912;SDS011;64592;52.168;21.040;2023-04-25T03:08:28;12.27;;;7.30;;
75912;SDS011;64592;52.168;21.040;2023-04-25T03:13:32;11.63;;;7.47;;
75912;SDS011;64592;52.168;21.040;2023-04-25T03:18:34;10.55;;;7.35;;
75912;SDS011;64592;52.168;21.040;2023-04-25T03:23:37;11.75;;;7.78;;
75912;SDS011;64592;52.168;21.040;2023-04-25T03:28:38;11.13;;;7.82;;
75912;SDS011;64592;52.168;21.040;2023-04-25T03:33:40;11.07;;;7.40;;
75912;SDS011;64592;52.168;21.040;2023-04-25T03:38:43;9.48;;;6.60;;
75912;SDS011;64592;52.168;21.040;2023-04-25T03:43:45;12.25;;;7.32;;
75912;SDS011;64592;52.168;21.040;2023-04-25T03:48:47;14.23;;;8.90;;
75912;SDS011;64592;52.168;21.040;2023-04-25T03:53:50;12.18;;;8.30;;
75912;SDS011;64592;52.168;21.040;2023-04-25T03:58:51;14.10;;;7.57;;
75912;SDS011;64592;52.168;21.040;2023-04-25T04:03:53;11.43;;;7.93;;
75912;SDS011;64592;52.168;21.040;2023-04-25T04:08:56;12.25;;;8.25;;
75912;SDS011;64592;52.168;21.040;2023-04-25T04:13:58;11.07;;;6.47;;
75912;SDS011;64592;52.168;21.040;2023-04-25T04:19:00;9.43;;;6.47;;
75912;SDS011;64592;52.168;21.040;2023-04-25T04:24:03;9.70;;;6.40;;
75912;SDS011;64592;52.168;21.040;2023-04-25T04:29:05;9.77;;;6.57;;
75912;SDS011;64592;52.168;21.040;2023-04-25T04:34:08;9.65;;;6.30;;
75912;SDS011;64592;52.168;21.040;2023-04-25T04:39:12;9.05;;;6.18;;
75912;SDS011;64592;52.168;21.040;2023-04-25T04:44:14;8.68;;;5.88;;
75912;SDS011;64592;52.168;21.040;2023-04-25T04:49:15;8.82;;;6.18;;
75912;SDS011;64592;52.168;21.040;2023-04-25T04:54:18;11.15;;;6.95;;
75912;SDS011;64592;52.168;21.040;2023-04-25T04:59:20;10.05;;;6.53;;
75912;SDS011;64592;52.168;21.040;2023-04-25T05:04:22;10.77;;;7.15;;
75912;SDS011;64592;52.168;21.040;2023-04-25T05:09:25;9.82;;;6.50;;
75912;SDS011;64592;52.168;21.040;2023-04-25T05:14:27;10.70;;;6.85;;
75912;SDS011;64592;52.168;21.040;2023-04-25T05:19:29;9.63;;;7.25;;
75912;SDS011;64592;52.168;21.040;2023-04-25T05:24:32;8.98;;;7.32;;
75912;SDS011;64592;52.168;21.040;2023-04-25T05:29:34;9.27;;;7.20;;
75912;SDS011;64592;52.168;21.040;2023-04-25T05:34:36;9.57;;;6.60;;
75912;SDS011;64592;52.168;21.040;2023-04-25T05:39:39;12.45;;;7.68;;
75912;SDS011;64592;52.168;21.040;2023-04-25T05:44:41;11.40;;;6.47;;
75912;SDS011;64592;52.168;21.040;2023-04-25T05:49:43;10.40;;;6.30;;
75912;SDS011;64592;52.168;21.040;2023-04-25T05:54:46;10.77;;;6.28;;
75912;SDS011;64592;52.168;21.040;2023-04-25T05:59:47;9.38;;;6.90;;
75912;SDS011;64592;52.168;21.040;2023-04-25T06:04:49;10.27;;;7.45;;
75912;SDS011;64592;52.168;21.040;2023-04-25T06:09:53;9.38;;;6.38;;
75912;SDS011;64592;52.168;21.040;2023-04-25T06:14:54;12.18;;;6.53;;
75912;SDS011;64592;52.168;21.040;2023-04-25T06:19:56;9.18;;;6.68;;
75912;SDS011;64592;52.168;21.040;2023-04-25T06:25:00;8.60;;;6.28;;
75912;SDS011;64592;52.168;21.040;2023-04-25T06:30:04;10.75;;;6.28;;
75912;SDS011;64592;52.168;21.040;2023-04-25T06:35:07;9.93;;;6.10;;
75912;SDS011;64592;52.168;21.040;2023-04-25T06:40:11;9.77;;;6.65;;
75912;SDS011;64592;52.168;21.040;2023-04-25T06:45:13;12.07;;;7.45;;
75912;SDS011;64592;52.168;21.040;2023-04-25T06:50:15;10.10;;;6.57;;
75912;SDS011;64592;52.168;21.040;2023-04-25T06:55:18;8.50;;;6.47;;
75912;SDS011;64592;52.168;21.040;2023-04-25T07:00:20;8.80;;;5.90;;
75912;SDS011;64592;52.168;21.040;2023-04-25T07:05:22;10.05;;;6.88;;
75912;SDS011;64592;52.168;21.040;2023-04-25T07:10:25;9.15;;;6.13;;
75912;SDS011;64592;52.168;21.040;2023-04-25T07:15:26;7.68;;;6.30;;
75912;SDS011;64592;52.168;21.040;2023-04-25T07:20:28;10.38;;;6.95;;
75912;SDS011;64592;52.168;21.040;2023-04-25T07:25:32;7.75;;;6.05;;
75912;SDS011;64592;52.168;21.040;2023-04-25T07:30:34;7.45;;;5.65;;
75912;SDS011;64592;52.168;21.040;2023-04-25T07:35:36;9.00;;;5.75;;
75912;SDS011;64592;52.168;21.040;2023-04-25T07:40:39;9.20;;;5.60;;
75912;SDS011;64592;52.168;21.040;2023-04-25T07:45:41;10.60;;;5.63;;
75912;SDS011;64592;52.168;21.040;2023-04-25T07:50:42;8.23;;;5.60;;
75912;SDS011;64592;52.168;21.040;2023-04-25T07:55:45;9.65;;;5.97;;
75912;SDS011;64592;52.168;21.040;2023-04-25T08:00:47;8.18;;;5.53;;
75912;SDS011;64592;52.168;21.040;2023-04-25T08:05:49;8.75;;;5.68;;
75912;SDS011;64592;52.168;21.040;2023-04-25T08:10:52;7.78;;;5.18;;
75912;SDS011;64592;52.168;21.040;2023-04-25T08:15:53;7.63;;;5.22;;
75912;SDS011;64592;52.168;21.040;2023-04-25T08:20:55;7.25;;;5.20;;
75912;SDS011;64592;52.168;21.040;2023-04-25T08:25:58;6.57;;;4.95;;
75912;SDS011;64592;52.168;21.040;2023-04-25T08:31:00;7.50;;;5.05;;
75912;SDS011;64592;52.168;21.040;2023-04-25T08:36:01;6.38;;;4.30;;
75912;SDS011;64592;52.168;21.040;2023-04-25T08:41:05;7.25;;;4.00;;
75912;SDS011;64592;52.168;21.040;2023-04-25T08:46:07;6.00;;;4.10;;
75912;SDS011;64592;52.168;21.040;2023-04-25T08:51:09;6.13;;;4.70;;
75912;SDS011;64592;52.168;21.040;2023-04-25T08:56:18;6.18;;;4.57;;
75912;SDS011;64592;52.168;21.040;2023-04-25T09:01:23;7.60;;;4.93;;
75912;SDS011;64592;52.168;21.040;2023-04-25T09:06:25;7.50;;;4.95;;
75912;SDS011;64592;52.168;21.040;2023-04-25T09:11:29;6.38;;;4.93;;
75912;SDS011;64592;52.168;21.040;2023-04-25T09:16:30;6.88;;;4.80;;
75912;SDS011;64592;52.168;21.040;2023-04-25T09:21:32;6.47;;;4.63;;
75912;SDS011;64592;52.168;21.040;2023-04-25T09:26:37;6.75;;;4.40;;
75912;SDS011;64592;52.168;21.040;2023-04-25T09:31:39;7.30;;;4.03;;
75912;SDS011;64592;52.168;21.040;2023-04-25T09:36:40;6.95;;;4.78;;
75912;SDS011;64592;52.168;21.040;2023-04-25T09:41:44;6.75;;;5.10;;
75912;SDS011;64592;52.168;21.040;2023-04-25T09:46:46;7.03;;;5.35;;
75912;SDS011;64592;52.168;21.040;2023-04-25T09:51:56;8.27;;;5.10;;
75912;SDS011;64592;52.168;21.040;2023-04-25T09:56:59;7.60;;;4.95;;
75912;SDS011;64592;52.168;21.040;2023-04-25T10:02:11;7.07;;;5.10;;
75912;SDS011;64592;52.168;21.040;2023-04-25T10:07:13;8.70;;;5.82;;
75912;SDS011;64592;52.168;21.040;2023-04-25T10:12:17;7.68;;;6.25;;
75912;SDS011;64592;52.168;21.040;2023-04-25T10:17:19;10.18;;;6.25;;
75912;SDS011;64592;52.168;21.040;2023-04-25T10:22:23;11.10;;;6.00;;
75912;SDS011;64592;52.168;21.040;2023-04-25T10:27:32;8.27;;;5.70;;
75912;SDS011;64592;52.168;21.040;2023-04-25T10:32:35;9.50;;;5.70;;
75912;SDS011;64592;52.168;21.040;2023-04-25T10:37:37;9.20;;;5.85;;
75912;SDS011;64592;52.168;21.040;2023-04-25T10:42:40;8.23;;;6.53;;
75912;SDS011;64592;52.168;21.040;2023-04-25T10:47:43;10.77;;;7.57;;
75912;SDS011;64592;52.168;21.040;2023-04-25T10:52:45;10.88;;;6.72;;
75912;SDS011;64592;52.168;21.040;2023-04-25T10:57:48;10.45;;;7.13;;
75912;SDS011;64592;52.168;21.040;2023-04-25T11:02:51;10.35;;;6.93;;
75912;SDS011;64592;52.168;21.040;2023-04-25T11:07:54;11.35;;;7.43;;
75912;SDS011;64592;52.168;21.040;2023-04-25T11:12:58;9.02;;;6.72;;
75912;SDS011;64592;52.168;21.040;2023-04-25T11:18:00;8.38;;;5.80;;
75912;SDS011;64592;52.168;21.040;2023-04-25T11:23:04;9.50;;;6.72;;
75912;SDS011;64592;52.168;21.040;2023-04-25T11:28:07;8.98;;;7.10;;
75912;SDS011;64592;52.168;21.040;2023-04-25T11:33:09;9.50;;;6.68;;
75912;SDS011;64592;52.168;21.040;2023-04-25T11:38:10;8.55;;;6.72;;
75912;SDS011;64592;52.168;21.040;2023-04-25T11:43:13;8.85;;;6.78;;
75912;SDS011;64592;52.168;21.040;2023-04-25T11:48:15;10.13;;;7.18;;
75912;SDS011;64592;52.168;21.040;2023-04-25T11:53:17;7.45;;;6.30;;
75912;SDS011;64592;52.168;21.040;2023-04-25T11:58:20;7.45;;;6.05;;
75912;SDS011;64592;52.168;21.040;2023-04-25T12:03:22;8.60;;;6.70;;
75912;SDS011;64592;52.168;21.040;2023-04-25T12:08:26;9.73;;;7.70;;
75912;SDS011;64592;52.168;21.040;2023-04-25T12:13:29;9.05;;;7.95;;
75912;SDS011;64592;52.168;21.040;2023-04-25T12:18:32;8.48;;;6.65;;
75912;SDS011;64592;52.168;21.040;2023-04-25T12:23:38;8.43;;;7.35;;
75912;SDS011;64592;52.168;21.040;2023-04-25T12:28:44;8.10;;;6.20;;
75912;SDS011;64592;52.168;21.040;2023-04-25T12:33:47;6.88;;;5.18;;
75912;SDS011;64592;52.168;21.040;2023-04-25T12:38:48;9.98;;;5.50;;
75912;SDS011;64592;52.168;21.040;2023-04-25T12:43:51;7.50;;;5.50;;
75912;SDS011;64592;52.168;21.040;2023-04-25T12:48:53;8.77;;;5.15;;
75912;SDS011;64592;52.168;21.040;2023-04-25T12:53:56;14.57;;;5.75;;
75912;SDS011;64592;52.168;21.040;2023-04-25T12:58:59;8.55;;;5.32;;
75912;SDS011;64592;52.168;21.040;2023-04-25T13:04:03;6.00;;;4.97;;
75912;SDS011;64592;52.168;21.040;2023-04-25T13:09:04;6.13;;;5.00;;
75912;SDS011;64592;52.168;21.040;2023-04-25T13:14:08;5.63;;;4.60;;
75912;SDS011;64592;52.168;21.040;2023-04-25T13:19:09;5.88;;;4.80;;
75912;SDS011;64592;52.168;21.040;2023-04-25T13:24:12;6.03;;;4.80;;
75912;SDS011;64592;52.168;21.040;2023-04-25T13:29:15;8.82;;;5.00;;
75912;SDS011;64592;52.168;21.040;2023-04-25T13:34:17;6.05;;;4.50;;
75912;SDS011;64592;52.168;21.040;2023-04-25T13:39:18;6.32;;;4.25;;
75912;SDS011;64592;52.168;21.040;2023-04-25T13:44:21;4.88;;;3.80;;
75912;SDS011;64592;52.168;21.040;2023-04-25T13:49:23;5.30;;;4.25;;
75912;SDS011;64592;52.168;21.040;2023-04-25T13:54:25;6.90;;;4.28;;
75912;SDS011;64592;52.168;21.040;2023-04-25T13:59:28;4.88;;;4.20;;
75912;SDS011;64592;52.168;21.040;2023-04-25T14:04:30;6.10;;;4.72;;
75912;SDS011;64592;52.168;21.040;2023-04-25T14:09:32;7.50;;;5.18;;
75912;SDS011;64592;52.168;21.040;2023-04-25T14:14:35;6.38;;;4.63;;
75912;SDS011;64592;52.168;21.040;2023-04-25T14:19:37;6.85;;;4.75;;
75912;SDS011;64592;52.168;21.040;2023-04-25T14:24:43;6.35;;;4.90;;
75912;SDS011;64592;52.168;21.040;2023-04-25T14:29:46;7.82;;;5.10;;
75912;SDS011;64592;52.168;21.040;2023-04-25T14:34:48;6.15;;;4.50;;
75912;SDS011;64592;52.168;21.040;2023-04-25T14:39:50;6.82;;;5.30;;
75912;SDS011;64592;52.168;21.040;2023-04-25T14:44:52;6.65;;;4.70;;
75912;SDS011;64592;52.168;21.040;2023-04-25T14:49:54;6.55;;;5.60;;
75912;SDS011;64592;52.168;21.040;2023-04-25T14:54:56;6.95;;;4.90;;
75912;SDS011;64592;52.168;21.040;2023-04-25T15:00:01;5.75;;;4.35;;
75912;SDS011;64592;52.168;21.040;2023-04-25T15:05:05;6.15;;;4.50;;
75912;SDS011;64592;52.168;21.040;2023-04-25T15:10:08;5.72;;;4.40;;
75912;SDS011;64592;52.168;21.040;2023-04-25T15:15:15;6.18;;;4.82;;
75912;SDS011;64592;52.168;21.040;2023-04-25T15:20:16;6.47;;;4.95;;
75912;SDS011;64592;52.168;21.040;2023-04-25T15:25:18;8.75;;;4.85;;
75912;SDS011;64592;52.168;21.040;2023-04-25T15:30:21;11.05;;;5.18;;
75912;SDS011;64592;52.168;21.040;2023-04-25T15:35:23;6.97;;;5.18;;
75912;SDS011;64592;52.168;21.040;2023-04-25T15:40:24;7.15;;;5.97;;
75912;SDS011;64592;52.168;21.040;2023-04-25T15:45:27;8.50;;;6.35;;
75912;SDS011;64592;52.168;21.040;2023-04-25T15:50:32;7.90;;;5.45;;
75912;SDS011;64592;52.168;21.040;2023-04-25T15:55:35;11.50;;;5.20;;
75912;SDS011;64592;52.168;21.040;2023-04-25T16:00:38;6.60;;;4.78;;
75912;SDS011;64592;52.168;21.040;2023-04-25T16:05:40;7.57;;;5.15;;
75912;SDS011;64592;52.168;21.040;2023-04-25T16:10:42;8.10;;;5.03;;
75912;SDS011;64592;52.168;21.040;2023-04-25T16:15:45;8.40;;;5.20;;
75912;SDS011;64592;52.168;21.040;2023-04-25T16:20:47;7.32;;;5.32;;
75912;SDS011;64592;52.168;21.040;2023-04-25T16:25:49;8.75;;;5.72;;
75912;SDS011;64592;52.168;21.040;2023-04-25T16:30:52;8.52;;;5.85;;
75912;SDS011;64592;52.168;21.040;2023-04-25T16:35:53;8.93;;;5.60;;
75912;SDS011;64592;52.168;21.040;2023-04-25T16:40:55;7.38;;;5.13;;
75912;SDS011;64592;52.168;21.040;2023-04-25T16:45:58;6.88;;;4.55;;
75912;SDS011;64592;52.168;21.040;2023-04-25T16:51:00;6.85;;;4.93;;
75912;SDS011;64592;52.168;21.040;2023-04-25T16:56:02;9.52;;;5.57;;
75912;SDS011;64592;52.168;21.040;2023-04-25T17:01:05;7.72;;;6.28;;
75912;SDS011;64592;52.168;21.040;2023-04-25T17:06:07;8.23;;;5.63;;
75912;SDS011;64592;52.168;21.040;2023-04-25T17:11:09;10.30;;;5.68;;
75912;SDS011;64592;52.168;21.040;2023-04-25T17:16:13;7.63;;;5.43;;
75912;SDS011;64592;52.168;21.040;2023-04-25T17:21:15;8.15;;;5.50;;
75912;SDS011;64592;52.168;21.040;2023-04-25T17:26:18;6.45;;;5.13;;
75912;SDS011;64592;52.168;21.040;2023-04-25T17:31:21;9.27;;;5.50;;
75912;SDS011;64592;52.168;21.040;2023-04-25T17:36:23;7.90;;;5.45;;
75912;SDS011;64592;52.168;21.040;2023-04-25T17:41:24;7.88;;;4.93;;
75912;SDS011;64592;52.168;21.040;2023-04-25T17:46:27;7.70;;;4.90;;
75912;SDS011;64592;52.168;21.040;2023-04-25T17:51:29;7.78;;;4.90;;
75912;SDS011;64592;52.168;21.040;2023-04-25T17:56:32;8.00;;;4.70;;
75912;SDS011;64592;52.168;21.040;2023-04-25T18:01:37;7.90;;;4.88;;
75912;SDS011;64592;52.168;21.040;2023-04-25T18:06:39;6.97;;;5.05;;
75912;SDS011;64592;52.168;21.040;2023-04-25T18:11:40;8.63;;;5.50;;
75912;SDS011;64592;52.168;21.040;2023-04-25T18:16:43;6.95;;;4.82;;
75912;SDS011;64592;52.168;21.040;2023-04-25T18:21:45;7.30;;;4.55;;
75912;SDS011;64592;52.168;21.040;2023-04-25T18:26:47;7.45;;;5.35;;
75912;SDS011;64592;52.168;21.040;2023-04-25T18:31:50;7.10;;;4.80;;
75912;SDS011;64592;52.168;21.040;2023-04-25T18:36:52;8.20;;;5.25;;
75912;SDS011;64592;52.168;21.040;2023-04-25T18:41:55;7.32;;;5.07;;
75912;SDS011;64592;52.168;21.040;2023-04-25T18:46:58;9.43;;;5.20;;
75912;SDS011;64592;52.168;21.040;2023-04-25T18:52:00;6.88;;;4.93;;
75912;SDS011;64592;52.168;21.040;2023-04-25T18:57:02;9.55;;;5.65;;
75912;SDS011;64592;52.168;21.040;2023-04-25T19:02:07;8.73;;;5.63;;
75912;SDS011;64592;52.168;21.040;2023-04-25T19:07:09;9.43;;;5.20;;
75912;SDS011;64592;52.168;21.040;2023-04-25T19:12:11;10.27;;;5.68;;
75912;SDS011;64592;52.168;21.040;2023-04-25T19:17:14;8.73;;;6.15;;
75912;SDS011;64592;52.168;21.040;2023-04-25T19:22:16;11.70;;;5.60;;
75912;SDS011;64592;52.168;21.040;2023-04-25T19:27:17;8.95;;;6.25;;
75912;SDS011;64592;52.168;21.040;2023-04-25T19:32:20;8.70;;;5.90;;
75912;SDS011;64592;52.168;21.040;2023-04-25T19:37:23;7.47;;;5.18;;
75912;SDS011;64592;52.168;21.040;2023-04-25T19:42:24;9.02;;;5.95;;
75912;SDS011;64592;52.168;21.040;2023-04-25T19:47:27;10.70;;;5.95;;
75912;SDS011;64592;52.168;21.040;2023-04-25T19:52:29;10.90;;;6.30;;
75912;SDS011;64592;52.168;21.040;2023-04-25T19:57:31;10.73;;;5.93;;
75912;SDS011;64592;52.168;21.040;2023-04-25T20:02:34;9.82;;;6.25;;
75912;SDS011;64592;52.168;21.040;2023-04-25T20:07:36;9.60;;;7.00;;
75912;SDS011;64592;52.168;21.040;2023-04-25T20:12:37;9.70;;;6.35;;
75912;SDS011;64592;52.168;21.040;2023-04-25T20:17:41;8.73;;;6.15;;
75912;SDS011;64592;52.168;21.040;2023-04-25T20:22:43;7.75;;;5.93;;
75912;SDS011;64592;52.168;21.040;2023-04-25T20:27:44;10.38;;;6.03;;
75912;SDS011;64592;52.168;21.040;2023-04-25T20:32:47;7.35;;;5.38;;
75912;SDS011;64592;52.168;21.040;2023-04-25T20:37:50;9.70;;;6.10;;
75912;SDS011;64592;52.168;21.040;2023-04-25T20:42:51;10.23;;;6.40;;
75912;SDS011;64592;52.168;21.040;2023-04-25T20:47:56;10.10;;;6.40;;
75912;SDS011;64592;52.168;21.040;2023-04-25T20:52:58;9.05;;;5.82;;
75912;SDS011;64592;52.168;21.040;2023-04-25T20:57:59;8.65;;;6.03;;
75912;SDS011;64592;52.168;21.040;2023-04-25T21:03:04;11.15;;;6.45;;
75912;SDS011;64592;52.168;21.040;2023-04-25T21:08:06;6.85;;;5.35;;
75912;SDS011;64592;52.168;21.040;2023-04-25T21:13:08;8.77;;;6.63;;
75912;SDS011;64592;52.168;21.040;2023-04-25T21:18:12;9.57;;;6.38;;
75912;SDS011;64592;52.168;21.040;2023-04-25T21:23:14;8.50;;;6.53;;
75912;SDS011;64592;52.168;21.040;2023-04-25T21:28:16;11.20;;;6.30;;
75912;SDS011;64592;52.168;21.040;2023-04-25T21:33:19;12.65;;;6.00;;
75912;SDS011;64592;52.168;21.040;2023-04-25T21:38:21;9.52;;;5.72;;
75912;SDS011;64592;52.168;21.040;2023-04-25T21:43:22;10.20;;;6.88;;
75912;SDS011;64592;52.168;21.040;2023-04-25T21:48:25;11.55;;;7.38;;
75912;SDS011;64592;52.168;21.040;2023-04-25T21:53:27;10.55;;;7.15;;
75912;SDS011;64592;52.168;21.040;2023-04-25T21:58:30;11.63;;;8.60;;
75912;SDS011;64592;52.168;21.040;2023-04-25T22:03:33;15.38;;;8.07;;
75912;SDS011;64592;52.168;21.040;2023-04-25T22:08:35;12.38;;;8.77;;
75912;SDS011;64592;52.168;21.040;2023-04-25T22:13:36;13.35;;;8.18;;
75912;SDS011;64592;52.168;21.040;2023-04-25T22:18:40;13.93;;;8.25;;
75912;SDS011;64592;52.168;21.040;2023-04-25T22:23:42;12.20;;;8.00;;
75912;SDS011;64592;52.168;21.040;2023-04-25T22:28:43;15.52;;;7.97;;
75912;SDS011;64592;52.168;21.040;2023-04-25T22:33:47;11.38;;;6.60;;
75912;SDS011;64592;52.168;21.040;2023-04-25T22:38:49;8.43;;;5.07;;
75912;SDS011;64592;52.168;21.040;2023-04-25T22:43:51;10.05;;;4.82;;
75912;SDS011;64592;52.168;21.040;2023-04-25T22:48:54;10.15;;;5.32;;
75912;SDS011;64592;52.168;21.040;2023-04-25T22:53:56;10.13;;;5.20;;
75912;SDS011;64592;52.168;21.040;2023-04-25T22:58:58;9.93;;;4.55;;
75912;SDS011;64592;52.168;21.040;2023-04-25T23:04:01;8.20;;;4.50;;
75912;SDS011;64592;52.168;21.040;2023-04-25T23:09:03;9.88;;;4.45;;
75912;SDS011;64592;52.168;21.040;2023-04-25T23:14:08;7.97;;;4.28;;
75912;SDS011;64592;52.168;21.040;2023-04-25T23:19:11;6.03;;;3.90;;
75912;SDS011;64592;52.168;21.040;2023-04-25T23:24:13;5.82;;;3.80;;
75912;SDS011;64592;52.168;21.040;2023-04-25T23:29:15;7.47;;;4.25;;
75912;SDS011;64592;52.168;21.040;2023-04-25T23:34:18;7.95;;;4.60;;
75912;SDS011;64592;52.168;21.040;2023-04-25T23:39:20;8.55;;;4.65;;
75912;SDS011;64592;52.168;21.040;2023-04-25T23:44:23;8.98;;;4.28;;
75912;SDS011;64592;52.168;21.040;2023-04-25T23:49:26;8.18;;;4.72;;
75912;SDS011;64592;52.168;21.040;2023-04-25T23:54:28;8.40;;;4.32;;
75912;SDS011;64592;52.168;21.040;2023-04-25T23:59:29;9.25;;;3.83;;
